createdAt,value
2016-07-14T00:00:02.166Z,0
2016-07-14T00:01:02.198Z,0
2016-07-14T00:02:02.212Z,0
2016-07-14T00:03:02.959Z,0
2016-07-14T00:04:02.237Z,0
2016-07-14T00:05:02.283Z,0
2016-07-14T00:06:02.280Z,0
2016-07-14T00:07:02.299Z,0
2016-07-14T00:08:02.320Z,0
2016-07-14T00:09:02.329Z,0
2016-07-14T00:10:02.360Z,0
2016-07-14T00:11:02.357Z,0
2016-07-14T00:12:02.385Z,0
2016-07-14T00:13:02.399Z,0
2016-07-14T00:14:02.411Z,0
2016-07-14T00:15:02.425Z,0
2016-07-14T00:16:02.452Z,0
2016-07-14T00:17:02.462Z,0
2016-07-14T00:18:02.487Z,0
2016-07-14T00:19:02.501Z,0
2016-07-14T00:20:02.521Z,0
2016-07-14T00:21:02.534Z,0
2016-07-14T00:22:02.548Z,0
2016-07-14T00:23:02.577Z,0
2016-07-14T00:24:02.591Z,0
2016-07-14T00:25:02.624Z,0
2016-07-14T00:26:02.620Z,0
2016-07-14T00:27:02.640Z,0
2016-07-14T00:28:02.657Z,0
2016-07-14T00:29:02.676Z,0
2016-07-14T00:30:02.701Z,0
2016-07-14T00:31:02.715Z,0
2016-07-14T00:32:02.726Z,0
2016-07-14T00:33:02.746Z,0
2016-07-14T00:34:02.763Z,0
2016-07-14T00:35:02.774Z,0
2016-07-14T00:36:02.799Z,0
2016-07-14T00:37:02.821Z,0
2016-07-14T00:38:02.842Z,0
2016-07-14T00:39:02.842Z,0
2016-07-14T00:40:02.877Z,0
2016-07-14T00:41:02.887Z,0
2016-07-14T00:42:02.898Z,0
2016-07-14T00:43:02.927Z,0
2016-07-14T00:44:02.927Z,0
2016-07-14T00:45:02.963Z,0
2016-07-14T00:46:02.967Z,0
2016-07-14T00:47:02.990Z,0
2016-07-14T00:48:03.001Z,0
2016-07-14T00:49:03.031Z,0
2016-07-14T00:50:03.040Z,0
2016-07-14T00:51:03.062Z,0
2016-07-14T00:52:03.077Z,0
2016-07-14T00:53:03.090Z,0
2016-07-14T00:54:03.114Z,0
2016-07-14T00:55:03.122Z,0
2016-07-14T00:56:03.158Z,0
2016-07-14T00:57:03.161Z,0
2016-07-14T00:58:03.187Z,0
2016-07-14T00:59:03.191Z,0
2016-07-14T01:00:03.225Z,0
2016-07-14T01:01:03.226Z,0
2016-07-14T01:07:03.344Z,0
2016-07-14T01:08:03.376Z,0
2016-07-14T01:09:03.367Z,0
2016-07-14T01:10:03.392Z,0
2016-07-14T01:11:03.431Z,0
2016-07-14T01:12:03.425Z,0
2016-07-14T01:13:03.455Z,0
2016-07-14T01:14:03.458Z,0
2016-07-14T01:15:03.499Z,0
2016-07-14T01:16:03.501Z,0
2016-07-14T01:17:03.527Z,0
2016-07-14T01:18:03.537Z,0
2016-07-14T01:19:03.555Z,0
2016-07-14T01:20:03.559Z,0
2016-07-14T01:21:03.576Z,0
2016-07-14T01:22:03.611Z,0
2016-07-14T01:23:03.625Z,0
2016-07-14T01:24:03.641Z,0
2016-07-14T01:25:03.672Z,0
2016-07-14T01:26:03.667Z,0
2016-07-14T01:27:03.686Z,0
2016-07-14T01:28:03.710Z,0
2016-07-14T01:29:03.724Z,0
2016-07-14T01:30:03.750Z,0
2016-07-14T01:31:03.765Z,0
2016-07-14T01:32:03.784Z,0
2016-07-14T01:33:03.794Z,0
2016-07-14T01:34:03.811Z,0
2016-07-14T01:35:03.853Z,0
2016-07-14T01:36:03.845Z,0
2016-07-14T01:37:03.868Z,0
2016-07-14T01:38:03.882Z,0
2016-07-14T01:39:03.908Z,0
2016-07-14T01:40:03.920Z,0
2016-07-14T01:41:03.949Z,0
2016-07-14T01:42:03.950Z,0
2016-07-14T01:43:03.976Z,0
2016-07-14T01:44:04.012Z,0
2016-07-14T01:45:04.007Z,0
2016-07-14T01:46:04.037Z,0
2016-07-14T01:47:04.075Z,0
2016-07-14T01:48:04.061Z,0
2016-07-14T01:49:04.085Z,0
2016-07-14T01:50:04.106Z,0
2016-07-14T01:51:04.125Z,0
2016-07-14T01:52:04.138Z,0
2016-07-14T01:53:04.190Z,0
2016-07-14T01:54:04.176Z,0
2016-07-14T01:55:04.294Z,0
2016-07-14T01:56:04.213Z,0
2016-07-14T01:57:04.305Z,0
2016-07-14T01:58:04.241Z,0
2016-07-14T01:59:04.313Z,0
2016-07-14T02:00:04.283Z,0
2016-07-14T02:01:04.305Z,0
2016-07-14T02:02:04.310Z,0
2016-07-14T02:03:04.400Z,0
2016-07-14T02:04:04.348Z,0
2016-07-14T02:05:04.409Z,0
2016-07-14T02:06:04.391Z,0
2016-07-14T02:07:04.407Z,0
2016-07-14T02:08:04.418Z,0
2016-07-14T02:09:04.438Z,0
2016-07-14T02:10:04.465Z,0
2016-07-14T02:11:04.484Z,0
2016-07-14T02:12:04.494Z,0
2016-07-14T02:13:04.522Z,0
2016-07-14T02:14:04.516Z,0
2016-07-14T02:15:04.548Z,0
2016-07-14T02:16:04.570Z,0
2016-07-14T02:17:04.581Z,0
2016-07-14T02:18:04.611Z,0
2016-07-14T02:19:04.609Z,0
2016-07-14T02:20:04.638Z,0
2016-07-14T02:21:04.638Z,0
2016-07-14T02:22:04.678Z,0
2016-07-14T02:23:04.686Z,0
2016-07-14T02:24:04.706Z,0
2016-07-14T02:25:04.725Z,0
2016-07-14T02:26:04.740Z,0
2016-07-14T02:27:04.769Z,0
2016-07-14T02:28:04.770Z,0
2016-07-14T02:29:04.796Z,0
2016-07-14T02:30:04.809Z,0
2016-07-14T02:31:04.823Z,0
2016-07-14T02:32:04.849Z,0
2016-07-14T02:33:04.868Z,0
2016-07-14T02:34:04.891Z,0
2016-07-14T02:35:04.898Z,0
2016-07-14T02:36:04.928Z,0
2016-07-14T02:37:04.938Z,0
2016-07-14T02:38:04.964Z,0
2016-07-14T02:39:04.975Z,0
2016-07-14T02:40:04.983Z,0
2016-07-14T02:41:05.013Z,0
2016-07-14T02:42:05.028Z,0
2016-07-14T02:43:05.045Z,0
2016-07-14T02:44:05.075Z,0
2016-07-14T02:45:05.076Z,0
2016-07-14T02:46:05.107Z,0
2016-07-14T02:47:05.106Z,0
2016-07-14T02:48:05.139Z,0
2016-07-14T02:49:05.154Z,0
2016-07-14T02:50:05.175Z,0
2016-07-14T02:51:05.186Z,0
2016-07-14T02:52:05.202Z,0
2016-07-14T02:53:05.231Z,0
2016-07-14T02:54:05.242Z,0
2016-07-14T02:55:05.255Z,0
2016-07-14T02:56:05.276Z,0
2016-07-14T02:57:05.281Z,0
2016-07-14T02:58:05.318Z,0
2016-07-14T02:59:05.327Z,0
2016-07-14T03:00:05.358Z,0
2016-07-14T03:01:05.358Z,0
2016-07-14T03:02:05.380Z,0
2016-07-14T03:03:05.398Z,0
2016-07-14T03:04:05.430Z,0
2016-07-14T03:05:05.438Z,0
2016-07-14T03:06:05.463Z,0
2016-07-14T03:07:05.451Z,0
2016-07-14T03:08:05.473Z,0
2016-07-14T03:09:05.503Z,0
2016-07-14T03:10:05.530Z,0
2016-07-14T03:11:05.531Z,0
2016-07-14T03:12:05.568Z,0
2016-07-14T03:13:05.574Z,0
2016-07-14T03:14:05.602Z,0
2016-07-14T03:15:05.616Z,0
2016-07-14T03:16:05.622Z,0
2016-07-14T03:17:05.658Z,0
2016-07-14T03:18:05.657Z,0
2016-07-14T03:19:05.677Z,0
2016-07-14T03:20:05.704Z,0
2016-07-14T03:21:05.710Z,0
2016-07-14T03:22:05.735Z,0
2016-07-14T03:23:05.756Z,0
2016-07-14T03:24:05.776Z,0
2016-07-14T03:25:05.777Z,0
2016-07-14T03:26:05.822Z,0
2016-07-14T03:27:05.825Z,0
2016-07-14T03:28:05.850Z,0
2016-07-14T03:29:05.873Z,5
2016-07-14T03:30:05.879Z,5
2016-07-14T03:31:05.893Z,5
2016-07-14T03:32:05.913Z,5
2016-07-14T03:33:05.924Z,5
2016-07-14T03:34:05.966Z,5
2016-07-14T03:35:05.971Z,5
2016-07-14T03:36:05.973Z,5
2016-07-14T03:37:06.002Z,5
2016-07-14T03:38:06.021Z,5
2016-07-14T03:39:06.034Z,5
2016-07-14T03:40:06.058Z,5
2016-07-14T03:41:06.071Z,5
2016-07-14T03:42:06.088Z,5
2016-07-14T03:43:06.112Z,5
2016-07-14T03:44:06.119Z,10
2016-07-14T03:45:06.126Z,10
2016-07-14T03:46:06.163Z,10
2016-07-14T03:47:06.167Z,10
2016-07-14T03:48:06.190Z,10
2016-07-14T03:49:06.208Z,10
2016-07-14T03:50:06.230Z,10
2016-07-14T03:51:06.230Z,10
2016-07-14T03:52:06.267Z,10
2016-07-14T03:53:06.265Z,10
2016-07-14T03:54:06.303Z,10
2016-07-14T03:55:06.321Z,10
2016-07-14T03:56:06.342Z,15
2016-07-14T03:57:06.359Z,15
2016-07-14T03:58:06.371Z,15
2016-07-14T03:59:06.381Z,15
2016-07-14T04:00:07.121Z,15
2016-07-14T04:01:06.451Z,20
2016-07-14T04:02:06.441Z,20
2016-07-14T04:03:06.455Z,20
2016-07-14T04:04:06.470Z,20
2016-07-14T04:05:06.474Z,20
2016-07-14T04:06:06.515Z,20
2016-07-14T04:07:06.579Z,20
2016-07-14T04:08:06.537Z,25
2016-07-14T04:09:06.625Z,25
2016-07-14T04:10:06.588Z,25
2016-07-14T04:11:06.659Z,25
2016-07-14T04:12:06.625Z,25
2016-07-14T04:13:06.656Z,30
2016-07-14T04:14:06.652Z,30
2016-07-14T04:15:06.714Z,30
2016-07-14T04:16:06.687Z,30
2016-07-14T04:17:06.752Z,30
2016-07-14T04:18:06.723Z,30
2016-07-14T04:19:06.760Z,35
2016-07-14T04:20:06.753Z,35
2016-07-14T04:21:06.800Z,35
2016-07-14T04:22:06.794Z,35
2016-07-14T04:23:06.799Z,35
2016-07-14T04:24:06.832Z,40
2016-07-14T04:25:06.842Z,40
2016-07-14T04:26:06.863Z,40
2016-07-14T04:27:06.879Z,40
2016-07-14T04:28:06.891Z,45
2016-07-14T04:29:06.921Z,45
2016-07-14T04:30:06.927Z,45
2016-07-14T04:31:06.951Z,45
2016-07-14T04:32:06.978Z,50
2016-07-14T04:33:06.982Z,50
2016-07-14T04:34:06.999Z,50
2016-07-14T04:35:07.024Z,50
2016-07-14T04:36:07.033Z,50
2016-07-14T04:37:07.046Z,50
2016-07-14T04:38:07.073Z,50
2016-07-14T04:39:07.077Z,50
2016-07-14T04:40:07.120Z,50
2016-07-14T04:41:07.120Z,50
2016-07-14T04:42:07.143Z,50
2016-07-14T04:43:07.166Z,50
2016-07-14T04:44:07.190Z,50
2016-07-14T04:45:07.195Z,50
2016-07-14T04:46:07.208Z,50
2016-07-14T04:47:07.226Z,50
2016-07-14T04:48:07.253Z,50
2016-07-14T04:49:07.264Z,50
2016-07-14T04:50:07.292Z,55
2016-07-14T04:51:07.287Z,55
2016-07-14T04:52:07.330Z,55
2016-07-14T04:53:07.339Z,55
2016-07-14T04:54:07.371Z,55
2016-07-14T04:55:07.370Z,55
2016-07-14T04:56:07.386Z,60
2016-07-14T04:57:07.400Z,60
2016-07-14T04:58:07.424Z,60
2016-07-14T04:59:07.448Z,60
2016-07-14T05:00:07.454Z,60
2016-07-14T05:01:07.476Z,60
2016-07-14T05:02:07.500Z,60
2016-07-14T05:03:07.508Z,65
2016-07-14T05:04:07.536Z,65
2016-07-14T05:05:07.554Z,65
2016-07-14T05:06:07.567Z,65
2016-07-14T05:07:07.583Z,70
2016-07-14T05:08:07.595Z,70
2016-07-14T05:09:07.637Z,70
2016-07-14T05:10:07.630Z,80
2016-07-14T05:11:07.654Z,75
2016-07-14T05:12:07.666Z,80
2016-07-14T05:13:07.682Z,80
2016-07-14T05:14:07.717Z,80
2016-07-14T05:15:07.723Z,80
2016-07-14T05:16:07.740Z,85
2016-07-14T05:17:07.751Z,85
2016-07-14T05:18:07.776Z,85
2016-07-14T05:19:07.791Z,85
2016-07-14T05:20:07.815Z,90
2016-07-14T05:21:07.829Z,95
2016-07-14T05:22:07.838Z,95
2016-07-14T05:23:07.868Z,100
2016-07-14T05:24:07.869Z,100
2016-07-14T05:25:07.894Z,100
2016-07-14T05:26:07.919Z,100
2016-07-14T05:27:07.923Z,110
2016-07-14T05:28:07.954Z,105
2016-07-14T05:29:07.958Z,110
2016-07-14T05:30:07.995Z,105
2016-07-14T05:31:08.001Z,105
2016-07-14T05:32:08.025Z,110
2016-07-14T05:33:08.047Z,115
2016-07-14T05:34:08.052Z,120
2016-07-14T05:35:08.074Z,120
2016-07-14T05:36:08.094Z,120
2016-07-14T05:37:08.106Z,115
2016-07-14T05:38:08.124Z,105
2016-07-14T05:39:08.153Z,110
2016-07-14T05:40:08.165Z,115
2016-07-14T05:41:08.190Z,140
2016-07-14T05:42:08.216Z,135
2016-07-14T05:43:08.221Z,135
2016-07-14T05:44:08.241Z,135
2016-07-14T05:45:08.252Z,130
2016-07-14T05:46:08.278Z,145
2016-07-14T05:47:08.285Z,155
2016-07-14T05:48:08.328Z,165
2016-07-14T05:49:08.322Z,150
2016-07-14T05:50:08.346Z,165
2016-07-14T05:51:08.376Z,160
2016-07-14T05:52:08.369Z,160
2016-07-14T05:53:08.402Z,160
2016-07-14T05:54:08.411Z,165
2016-07-14T05:55:08.435Z,170
2016-07-14T05:56:08.460Z,170
2016-07-14T05:57:08.481Z,155
2016-07-14T05:58:08.478Z,130
2016-07-14T05:59:08.502Z,140
2016-07-14T06:00:08.536Z,160
2016-07-14T06:01:08.552Z,145
2016-07-14T06:02:08.564Z,140
2016-07-14T06:03:08.578Z,130
2016-07-14T06:04:08.592Z,155
2016-07-14T06:05:08.625Z,130
2016-07-14T06:06:08.642Z,125
2016-07-14T06:07:08.651Z,130
2016-07-14T06:08:08.669Z,125
2016-07-14T06:09:08.688Z,125
2016-07-14T06:10:08.705Z,125
2016-07-14T06:11:08.732Z,130
2016-07-14T06:12:08.757Z,130
2016-07-14T06:13:08.754Z,135
2016-07-14T06:14:08.800Z,130
2016-07-14T06:15:08.805Z,135
2016-07-14T06:16:08.825Z,145
2016-07-14T06:17:08.835Z,145
2016-07-14T06:18:08.849Z,150
2016-07-14T06:19:08.866Z,135
2016-07-14T06:20:08.892Z,140
2016-07-14T06:21:08.914Z,140
2016-07-14T06:22:08.918Z,140
2016-07-14T06:23:08.951Z,130
2016-07-14T06:24:08.958Z,125
2016-07-14T06:25:09.000Z,130
2016-07-14T06:26:09.003Z,150
2016-07-14T06:27:09.018Z,155
2016-07-14T06:28:09.048Z,140
2016-07-14T06:29:09.059Z,170
2016-07-14T06:30:09.074Z,150
2016-07-14T06:31:09.091Z,175
2016-07-14T06:32:09.112Z,170
2016-07-14T06:33:09.135Z,170
2016-07-14T06:34:09.154Z,170
2016-07-14T06:35:09.167Z,135
2016-07-14T06:36:09.200Z,125
2016-07-14T06:37:09.202Z,120
2016-07-14T06:38:09.225Z,125
2016-07-14T06:39:09.247Z,135
2016-07-14T06:40:09.271Z,145
2016-07-14T06:41:09.277Z,135
2016-07-14T06:42:09.297Z,135
2016-07-14T06:43:09.322Z,140
2016-07-14T06:44:09.340Z,135
2016-07-14T06:45:09.364Z,130
2016-07-14T06:46:09.368Z,120
2016-07-14T06:47:09.387Z,115
2016-07-14T06:48:09.415Z,120
2016-07-14T06:49:09.431Z,120
2016-07-14T06:50:09.454Z,125
2016-07-14T06:51:09.459Z,130
2016-07-14T06:52:09.486Z,135
2016-07-14T06:53:09.499Z,145
2016-07-14T06:54:09.530Z,175
2016-07-14T06:55:09.542Z,190
2016-07-14T06:56:09.556Z,210
2016-07-14T06:57:09.575Z,195
2016-07-14T06:58:09.598Z,190
2016-07-14T06:59:09.613Z,190
2016-07-14T07:00:09.637Z,150
2016-07-14T07:01:09.654Z,135
2016-07-14T07:02:09.687Z,125
2016-07-14T07:03:09.688Z,115
2016-07-14T07:04:09.718Z,105
2016-07-14T07:05:09.734Z,105
2016-07-14T07:06:09.754Z,95
2016-07-14T07:07:09.759Z,85
2016-07-14T07:08:09.796Z,85
2016-07-14T07:09:09.809Z,95
2016-07-14T07:10:09.832Z,105
2016-07-14T07:11:09.851Z,120
2016-07-14T07:12:09.851Z,135
2016-07-14T07:13:09.877Z,145
2016-07-14T07:14:09.898Z,145
2016-07-14T07:15:09.918Z,145
2016-07-14T07:16:09.937Z,135
2016-07-14T07:17:09.948Z,135
2016-07-14T07:18:09.974Z,135
2016-07-14T07:19:09.994Z,125
2016-07-14T07:20:10.012Z,130
2016-07-14T07:21:10.036Z,140
2016-07-14T07:22:10.061Z,150
2016-07-14T07:23:10.069Z,155
2016-07-14T07:24:10.095Z,210
2016-07-14T07:25:10.108Z,225
2016-07-14T07:26:10.127Z,210
2016-07-14T07:27:10.149Z,175
2016-07-14T07:28:10.166Z,190
2016-07-14T07:29:10.191Z,190
2016-07-14T07:30:10.201Z,205
2016-07-14T07:31:10.226Z,200
2016-07-14T07:32:10.239Z,220
2016-07-14T07:33:10.256Z,225
2016-07-14T07:34:10.275Z,225
2016-07-14T07:35:10.295Z,170
2016-07-14T07:36:10.317Z,165
2016-07-14T07:37:10.340Z,230
2016-07-14T07:38:10.366Z,240
2016-07-14T07:39:10.358Z,210
2016-07-14T07:40:10.397Z,260
2016-07-14T07:41:10.403Z,255
2016-07-14T07:42:10.437Z,200
2016-07-14T07:43:10.439Z,190
2016-07-14T07:44:10.463Z,210
2016-07-14T07:45:10.492Z,210
2016-07-14T07:46:10.503Z,240
2016-07-14T07:47:10.525Z,180
2016-07-14T07:48:10.554Z,185
2016-07-14T07:49:11.279Z,180
2016-07-14T07:50:10.590Z,175
2016-07-14T07:51:10.595Z,175
2016-07-14T07:52:10.633Z,190
2016-07-14T07:53:10.655Z,255
2016-07-14T07:54:10.668Z,260
2016-07-14T07:55:10.681Z,270
2016-07-14T07:56:10.704Z,275
2016-07-14T07:57:10.720Z,270
2016-07-14T07:58:10.741Z,260
2016-07-14T07:59:10.760Z,200
2016-07-14T08:00:10.775Z,250
2016-07-14T08:01:10.811Z,180
2016-07-14T08:02:10.816Z,205
2016-07-14T08:03:10.839Z,255
2016-07-14T08:04:10.859Z,250
2016-07-14T08:05:10.880Z,195
2016-07-14T08:06:10.904Z,250
2016-07-14T08:07:10.902Z,240
2016-07-14T08:08:10.935Z,170
2016-07-14T08:09:10.964Z,155
2016-07-14T08:10:10.970Z,140
2016-07-14T08:11:10.997Z,145
2016-07-14T08:12:11.022Z,150
2016-07-14T08:13:11.034Z,155
2016-07-14T08:14:11.056Z,150
2016-07-14T08:15:11.075Z,150
2016-07-14T08:16:11.101Z,150
2016-07-14T08:17:11.106Z,150
2016-07-14T08:18:11.147Z,150
2016-07-14T08:19:11.155Z,150
2016-07-14T08:20:11.176Z,155
2016-07-14T08:21:11.193Z,165
2016-07-14T08:22:11.202Z,240
2016-07-14T08:23:11.240Z,250
2016-07-14T08:24:11.233Z,245
2016-07-14T08:25:11.263Z,245
2016-07-14T08:26:11.293Z,255
2016-07-14T08:27:12.013Z,260
2016-07-14T08:28:11.323Z,250
2016-07-14T08:29:11.333Z,260
2016-07-14T08:30:11.368Z,260
2016-07-14T08:31:11.400Z,250
2016-07-14T08:32:11.406Z,235
2016-07-14T08:33:11.422Z,230
2016-07-14T08:34:11.448Z,225
2016-07-14T08:35:11.454Z,230
2016-07-14T08:36:11.484Z,235
2016-07-14T08:37:11.502Z,220
2016-07-14T08:38:11.517Z,215
2016-07-14T08:39:11.550Z,205
2016-07-14T08:40:11.573Z,205
2016-07-14T08:41:11.561Z,170
2016-07-14T08:42:11.602Z,170
2016-07-14T08:43:11.609Z,170
2016-07-14T08:44:11.649Z,155
2016-07-14T08:45:11.660Z,155
2016-07-14T08:46:11.679Z,160
2016-07-14T08:47:11.709Z,160
2016-07-14T08:48:11.718Z,165
2016-07-14T08:49:11.746Z,170
2016-07-14T08:50:11.747Z,175
2016-07-14T08:51:11.770Z,180
2016-07-14T08:52:11.798Z,190
2016-07-14T08:53:11.818Z,190
2016-07-14T08:54:11.834Z,195
2016-07-14T08:55:11.847Z,200
2016-07-14T08:56:11.877Z,270
2016-07-14T08:57:11.893Z,275
2016-07-14T08:58:11.914Z,275
2016-07-14T08:59:11.927Z,280
2016-07-14T09:00:11.963Z,265
2016-07-14T09:01:11.972Z,265
2016-07-14T09:02:11.990Z,240
2016-07-14T09:03:12.010Z,245
2016-07-14T09:04:12.047Z,180
2016-07-14T09:05:12.052Z,185
2016-07-14T09:06:12.064Z,190
2016-07-14T09:07:12.092Z,190
2016-07-14T09:08:12.119Z,195
2016-07-14T09:09:12.123Z,195
2016-07-14T09:10:12.156Z,195
2016-07-14T09:11:12.180Z,200
2016-07-14T09:12:12.181Z,210
2016-07-14T09:13:12.202Z,220
2016-07-14T09:14:12.215Z,240
2016-07-14T09:15:12.263Z,255
2016-07-14T09:16:12.288Z,310
2016-07-14T09:17:12.284Z,315
2016-07-14T09:18:12.302Z,310
2016-07-14T09:19:12.326Z,310
2016-07-14T09:20:12.350Z,310
2016-07-14T09:21:12.386Z,310
2016-07-14T09:22:12.375Z,320
2016-07-14T09:23:12.409Z,325
2016-07-14T09:24:12.422Z,325
2016-07-14T09:25:12.462Z,280
2016-07-14T09:26:12.468Z,310
2016-07-14T09:27:12.493Z,295
2016-07-14T09:28:12.517Z,220
2016-07-14T09:29:12.531Z,200
2016-07-14T09:30:12.561Z,185
2016-07-14T09:31:12.577Z,175
2016-07-14T09:32:12.595Z,160
2016-07-14T09:33:12.605Z,150
2016-07-14T09:34:12.632Z,135
2016-07-14T09:35:12.651Z,115
2016-07-14T09:36:12.683Z,100
2016-07-14T09:37:12.685Z,95
2016-07-14T09:38:12.713Z,90
2016-07-14T09:39:12.722Z,95
2016-07-14T09:40:12.759Z,100
2016-07-14T09:41:12.773Z,110
2016-07-14T09:42:12.789Z,120
2016-07-14T09:43:12.806Z,125
2016-07-14T09:44:12.833Z,140
2016-07-14T09:45:12.855Z,145
2016-07-14T09:46:12.869Z,155
2016-07-14T09:47:12.893Z,165
2016-07-14T09:48:12.914Z,175
2016-07-14T09:49:12.927Z,185
2016-07-14T09:50:12.951Z,190
2016-07-14T09:51:12.981Z,195
2016-07-14T09:52:12.985Z,205
2016-07-14T09:53:13.004Z,215
2016-07-14T09:54:13.025Z,225
2016-07-14T09:55:13.065Z,225
2016-07-14T09:56:13.068Z,235
2016-07-14T09:57:13.096Z,240
2016-07-14T09:58:13.097Z,235
2016-07-14T09:59:13.130Z,240
2016-07-14T10:00:13.150Z,255
2016-07-14T10:01:13.159Z,245
2016-07-14T10:02:13.189Z,285
2016-07-14T10:03:13.207Z,265
2016-07-14T10:04:13.222Z,305
2016-07-14T10:05:13.246Z,305
2016-07-14T10:06:13.271Z,305
2016-07-14T10:07:13.308Z,305
2016-07-14T10:08:13.331Z,305
2016-07-14T10:09:13.341Z,315
2016-07-14T10:10:13.344Z,245
2016-07-14T10:11:13.362Z,245
2016-07-14T10:12:13.379Z,245
2016-07-14T10:13:13.419Z,255
2016-07-14T10:14:13.434Z,255
2016-07-14T10:15:13.447Z,255
2016-07-14T10:16:13.471Z,260
2016-07-14T10:17:13.504Z,270
2016-07-14T10:18:13.501Z,290
2016-07-14T10:19:13.524Z,315
2016-07-14T10:20:13.559Z,330
2016-07-14T10:21:13.573Z,325
2016-07-14T10:22:13.598Z,325
2016-07-14T10:23:13.617Z,315
2016-07-14T10:24:13.637Z,310
2016-07-14T10:25:13.651Z,300
2016-07-14T10:26:13.671Z,280
2016-07-14T10:27:13.688Z,220
2016-07-14T10:28:13.721Z,210
2016-07-14T10:29:13.740Z,200
2016-07-14T10:30:13.779Z,180
2016-07-14T10:31:13.795Z,165
2016-07-14T10:32:13.802Z,160
2016-07-14T10:33:13.824Z,155
2016-07-14T10:34:13.851Z,155
2016-07-14T10:35:13.871Z,155
2016-07-14T10:36:13.892Z,160
2016-07-14T10:37:13.913Z,170
2016-07-14T10:38:13.932Z,170
2016-07-14T10:39:13.951Z,180
2016-07-14T10:40:13.971Z,185
2016-07-14T10:41:13.988Z,190
2016-07-14T10:42:14.018Z,200
2016-07-14T10:43:14.046Z,195
2016-07-14T10:44:14.050Z,205
2016-07-14T10:45:14.078Z,205
2016-07-14T10:46:14.092Z,215
2016-07-14T10:47:14.127Z,220
2016-07-14T10:48:14.131Z,230
2016-07-14T10:49:14.154Z,235
2016-07-14T10:50:14.182Z,240
2016-07-14T10:51:14.190Z,245
2016-07-14T10:52:14.223Z,250
2016-07-14T10:53:14.240Z,315
2016-07-14T10:54:14.259Z,320
2016-07-14T10:55:14.283Z,255
2016-07-14T10:56:14.290Z,255
2016-07-14T10:57:14.323Z,255
2016-07-14T10:58:14.354Z,310
2016-07-14T10:59:14.360Z,280
2016-07-14T11:00:14.374Z,280
2016-07-14T11:01:14.410Z,260
2016-07-14T11:02:14.428Z,305
2016-07-14T11:03:14.447Z,315
2016-07-14T11:04:14.470Z,265
2016-07-14T11:05:14.489Z,315
2016-07-14T11:06:14.509Z,280
2016-07-14T11:07:14.529Z,265
2016-07-14T11:08:14.541Z,250
2016-07-14T11:09:14.585Z,245
2016-07-14T11:10:14.602Z,240
2016-07-14T11:11:14.614Z,240
2016-07-14T11:12:14.637Z,235
2016-07-14T11:13:14.658Z,230
2016-07-14T11:14:14.681Z,230
2016-07-14T11:15:14.694Z,255
2016-07-14T11:16:14.716Z,310
2016-07-14T11:17:14.741Z,270
2016-07-14T11:18:14.771Z,235
2016-07-14T11:19:14.785Z,230
2016-07-14T11:20:14.799Z,235
2016-07-14T11:21:14.824Z,240
2016-07-14T11:22:14.849Z,245
2016-07-14T11:23:14.872Z,250
2016-07-14T11:24:14.896Z,255
2016-07-14T11:25:14.904Z,260
2016-07-14T11:26:14.937Z,260
2016-07-14T11:27:14.959Z,270
2016-07-14T11:28:14.984Z,325
2016-07-14T11:29:14.995Z,310
2016-07-14T11:30:15.035Z,295
2016-07-14T11:31:15.039Z,290
2016-07-14T11:32:15.051Z,275
2016-07-14T11:33:15.082Z,270
2016-07-14T11:34:15.105Z,270
2016-07-14T11:35:15.124Z,255
2016-07-14T11:36:15.144Z,290
2016-07-14T11:37:15.158Z,240
2016-07-14T11:38:15.182Z,230
2016-07-14T11:39:15.214Z,230
2016-07-14T11:40:15.225Z,230
2016-07-14T11:41:15.261Z,245
2016-07-14T11:42:15.283Z,250
2016-07-14T11:43:15.289Z,265
2016-07-14T11:44:15.307Z,280
2016-07-14T11:45:15.330Z,290
2016-07-14T11:46:15.358Z,290
2016-07-14T11:47:15.380Z,285
2016-07-14T11:48:15.399Z,290
2016-07-14T11:49:15.436Z,290
2016-07-14T11:50:15.449Z,290
2016-07-14T11:51:15.457Z,300
2016-07-14T11:52:15.488Z,295
2016-07-14T11:53:15.508Z,290
2016-07-14T11:54:15.525Z,290
2016-07-14T11:55:15.543Z,300
2016-07-14T11:56:15.562Z,300
2016-07-14T11:57:15.593Z,290
2016-07-14T11:58:15.608Z,285
2016-07-14T11:59:15.629Z,335
2016-07-14T12:00:15.667Z,315
2016-07-14T12:01:15.666Z,275
2016-07-14T12:02:15.707Z,330
2016-07-14T12:03:15.715Z,310
2016-07-14T12:04:15.735Z,305
2016-07-14T12:05:15.765Z,270
2016-07-14T12:06:15.781Z,330
2016-07-14T12:08:15.822Z,325
2016-07-14T12:10:15.862Z,335
2016-07-14T12:11:15.903Z,350
2016-07-14T12:12:15.907Z,345
2016-07-14T12:13:15.936Z,345
2016-07-14T12:14:15.950Z,350
2016-07-14T12:15:15.973Z,350
2016-07-14T12:16:15.987Z,355
2016-07-14T12:17:16.017Z,360
2016-07-14T12:18:16.045Z,365
2016-07-14T12:19:16.054Z,340
2016-07-14T12:20:16.073Z,325
2016-07-14T12:21:16.098Z,295
2016-07-14T12:22:16.125Z,320
2016-07-14T12:23:16.151Z,370
2016-07-14T12:24:16.160Z,375
2016-07-14T12:25:16.179Z,380
2016-07-14T12:26:16.208Z,370
2016-07-14T12:27:16.232Z,360
2016-07-14T12:28:16.269Z,355
2016-07-14T12:29:16.277Z,385
2016-07-14T12:30:16.289Z,305
2016-07-14T12:31:16.339Z,360
2016-07-14T12:32:16.351Z,390
2016-07-14T12:33:16.365Z,385
2016-07-14T12:34:16.381Z,375
2016-07-14T12:35:16.421Z,375
2016-07-14T12:36:16.432Z,375
2016-07-14T12:37:16.453Z,360
2016-07-14T12:38:16.473Z,365
2016-07-14T12:39:16.501Z,325
2016-07-14T12:40:16.504Z,285
2016-07-14T12:41:16.537Z,285
2016-07-14T12:42:16.579Z,255
2016-07-14T12:43:16.579Z,250
2016-07-14T12:44:16.612Z,250
2016-07-14T12:45:16.631Z,250
2016-07-14T12:46:16.649Z,265
2016-07-14T12:47:16.680Z,265
2016-07-14T12:48:16.692Z,265
2016-07-14T12:49:16.719Z,275
2016-07-14T12:50:16.735Z,280
2016-07-14T12:51:16.773Z,300
2016-07-14T12:52:16.781Z,295
2016-07-14T12:53:16.804Z,300
2016-07-14T12:54:16.831Z,305
2016-07-14T12:55:16.849Z,295
2016-07-14T12:56:16.873Z,290
2016-07-14T12:57:16.892Z,280
2016-07-14T12:58:16.919Z,275
2016-07-14T12:59:16.935Z,275
2016-07-14T13:00:16.955Z,265
2016-07-14T13:01:16.982Z,265
2016-07-14T13:02:17.010Z,280
2016-07-14T13:03:17.027Z,280
2016-07-14T13:04:17.051Z,350
2016-07-14T13:05:17.093Z,330
2016-07-14T13:06:17.080Z,315
2016-07-14T13:07:17.119Z,265
2016-07-14T13:08:17.141Z,245
2016-07-14T13:09:17.152Z,310
2016-07-14T13:10:17.166Z,325
2016-07-14T13:11:17.193Z,315
2016-07-14T13:12:17.227Z,320
2016-07-14T13:13:17.241Z,325
2016-07-14T13:14:17.276Z,310
2016-07-14T13:15:17.280Z,315
2016-07-14T13:16:17.310Z,310
2016-07-14T13:17:17.343Z,305
2016-07-14T13:18:17.362Z,190
2016-07-14T13:19:17.368Z,190
2016-07-14T13:20:17.475Z,175
2016-07-14T13:21:17.431Z,170
2016-07-14T13:22:17.433Z,140
2016-07-14T13:23:17.457Z,115
2016-07-14T13:24:17.478Z,100
2016-07-14T13:25:17.515Z,85
2016-07-14T13:26:17.520Z,75
2016-07-14T13:27:17.552Z,60
2016-07-14T13:28:17.561Z,55
2016-07-14T13:29:17.598Z,50
2016-07-14T13:30:17.608Z,45
2016-07-14T13:31:17.625Z,40
2016-07-14T13:32:17.653Z,35
2016-07-14T13:33:17.675Z,35
2016-07-14T13:34:17.685Z,35
2016-07-14T13:35:17.715Z,30
2016-07-14T13:36:17.743Z,30
2016-07-14T13:37:17.753Z,35
2016-07-14T13:38:17.777Z,35
2016-07-14T13:39:17.798Z,40
2016-07-14T13:40:17.812Z,40
2016-07-14T13:41:17.834Z,45
2016-07-14T13:42:17.869Z,50
2016-07-14T13:43:17.872Z,55
2016-07-14T13:44:17.896Z,60
2016-07-14T13:45:17.914Z,65
2016-07-14T13:46:17.932Z,75
2016-07-14T13:47:17.951Z,85
2016-07-14T13:48:17.970Z,95
2016-07-14T13:49:17.982Z,105
2016-07-14T13:50:18.013Z,115
2016-07-14T13:51:18.030Z,125
2016-07-14T13:52:18.047Z,130
2016-07-14T13:53:18.063Z,140
2016-07-14T13:54:18.073Z,150
2016-07-14T13:55:18.101Z,160
2016-07-14T13:56:18.115Z,165
2016-07-14T13:57:18.142Z,175
2016-07-14T13:58:18.160Z,180
2016-07-14T13:59:18.172Z,185
2016-07-14T14:00:18.208Z,190
2016-07-14T14:01:18.208Z,195
2016-07-14T14:02:18.242Z,195
2016-07-14T14:03:18.244Z,195
2016-07-14T14:04:18.268Z,200
2016-07-14T14:05:18.278Z,215
2016-07-14T14:06:18.305Z,225
2016-07-14T14:07:18.338Z,235
2016-07-14T14:08:18.332Z,250
2016-07-14T14:09:18.358Z,260
2016-07-14T14:10:18.379Z,270
2016-07-14T14:11:18.392Z,280
2016-07-14T14:12:18.412Z,275